createdAt,value
2022-08-11T00:00:18.367Z,12.20
2022-08-11T00:02:53.217Z,9.40
2022-08-11T00:05:25.171Z,11.30
2022-08-11T00:07:58.532Z,10.20
2022-08-11T00:10:32.171Z,11.60
2022-08-11T00:13:05.870Z,9.80
2022-08-11T00:15:44.856Z,9.90
2022-08-11T00:18:21.157Z,8.40
2022-08-11T00:20:53.363Z,8.50
2022-08-11T00:23:25.045Z,9.10
2022-08-11T00:25:57.148Z,11.40
2022-08-11T00:28:31.179Z,8.80
2022-08-11T00:31:05.071Z,9.10
2022-08-11T00:33:45.116Z,7.70
2022-08-11T00:36:24.931Z,8.20
2022-08-11T00:39:04.462Z,8.80
2022-08-11T00:41:41.949Z,8.60
2022-08-11T00:44:34.701Z,9.40
2022-08-11T00:47:19.890Z,8.00
2022-08-11T00:50:09.293Z,9.70
2022-08-11T00:53:09.729Z,9.20
2022-08-11T00:56:13.443Z,10.80
2022-08-11T00:59:34.836Z,9.00
2022-08-11T01:02:18.845Z,9.00
2022-08-11T01:05:15.730Z,8.60
2022-08-11T01:08:32.747Z,10.30
2022-08-11T01:11:33.241Z,7.60
2022-08-11T01:14:41.769Z,6.90
2022-08-11T01:17:47.377Z,7.10
2022-08-11T01:24:13.731Z,7.20
2022-08-11T01:27:35.244Z,9.60
2022-08-11T01:30:33.635Z,6.70
2022-08-11T01:34:00.357Z,8.50
2022-08-11T01:36:59.801Z,9.50
2022-08-11T01:40:19.576Z,8.50
2022-08-11T01:43:29.593Z,6.20
2022-08-11T01:46:08.796Z,8.70
2022-08-11T01:48:52.165Z,7.50
2022-08-11T01:51:35.622Z,8.80
2022-08-11T01:54:21.227Z,7.80
2022-08-11T01:57:12.845Z,8.10
2022-08-11T01:59:51.985Z,7.80
2022-08-11T02:02:48.551Z,7.20
2022-08-11T02:05:32.670Z,7.10
2022-08-11T02:08:14.383Z,7.90
2022-08-11T02:11:14.994Z,7.30
2022-08-11T02:13:55.771Z,10.30
2022-08-11T02:16:50.182Z,7.50
2022-08-11T02:19:54.965Z,7.40
2022-08-11T02:22:55.544Z,7.60
2022-08-11T02:25:40.059Z,7.60
2022-08-11T02:28:29.759Z,7.70
2022-08-11T02:32:24.003Z,6.80
2022-08-11T02:34:40.107Z,7.40
2022-08-11T02:37:25.295Z,8.40
2022-08-11T02:40:21.821Z,9.20
2022-08-11T02:43:13.879Z,10.10
2022-08-11T02:45:57.019Z,7.20
2022-08-11T02:49:07.191Z,10.30
2022-08-11T02:51:54.636Z,7.40
2022-08-11T02:54:35.146Z,8.50
2022-08-11T02:57:17.272Z,8.00
2022-08-11T02:59:57.429Z,7.90
2022-08-11T03:02:46.156Z,7.30
2022-08-11T03:05:29.438Z,6.40
2022-08-11T03:08:16.085Z,9.00
2022-08-11T03:11:10.756Z,7.50
2022-08-11T03:14:16.080Z,10.30
2022-08-11T03:16:53.431Z,8.50
2022-08-11T03:19:36.655Z,7.40
2022-08-11T03:22:14.629Z,6.30
2022-08-11T03:25:02.363Z,8.10
2022-08-11T03:27:41.417Z,7.30
2022-08-11T03:30:18.151Z,9.10
2022-08-11T03:33:47.340Z,8.40
2022-08-11T03:37:15.067Z,8.20
2022-08-11T03:39:56.564Z,8.70
2022-08-11T03:42:34.762Z,9.70
2022-08-11T03:45:18.643Z,9.10
2022-08-11T03:48:05.102Z,7.80
2022-08-11T03:50:55.898Z,7.80
2022-08-11T03:53:45.841Z,8.80
2022-08-11T03:56:52.881Z,8.00
2022-08-11T04:00:10.621Z,7.90
2022-08-11T04:03:31.170Z,7.50
2022-08-11T04:06:41.147Z,8.90
2022-08-11T04:09:58.348Z,8.30
2022-08-11T04:12:51.495Z,7.30
2022-08-11T04:16:12.318Z,7.00
2022-08-11T04:19:29.046Z,8.00
2022-08-11T04:22:33.103Z,7.70
2022-08-11T04:25:57.807Z,7.40
2022-08-11T04:28:51.263Z,8.00
2022-08-11T04:31:44.329Z,8.40
2022-08-11T04:34:49.908Z,9.80
2022-08-11T04:37:44.846Z,7.30
2022-08-11T04:41:16.721Z,8.70
2022-08-11T04:44:27.621Z,7.50
2022-08-11T04:48:01.869Z,7.70
2022-08-11T04:51:17.775Z,6.90
2022-08-11T04:54:19.486Z,6.40
2022-08-11T04:57:10.524Z,7.90
2022-08-11T05:00:26.060Z,5.50
2022-08-11T05:03:33.716Z,8.00
2022-08-11T05:06:44.324Z,7.30
2022-08-11T05:09:30.011Z,8.20
2022-08-11T05:12:25.177Z,5.60
2022-08-11T05:15:15.763Z,9.30
2022-08-11T05:18:14.148Z,9.10
2022-08-11T05:21:09.671Z,9.30
2022-08-11T05:24:05.324Z,7.30
2022-08-11T05:27:03.667Z,12.30
2022-08-11T05:30:05.960Z,12.30
2022-08-11T05:33:01.898Z,10.10
2022-08-11T05:36:00.473Z,15.60
2022-08-11T05:38:53.005Z,9.70
2022-08-11T05:41:44.178Z,11.00
2022-08-11T05:44:40.031Z,7.50
2022-08-11T05:47:29.392Z,7.30
2022-08-11T05:50:18.045Z,8.90
2022-08-11T05:53:20.620Z,10.00
2022-08-11T05:56:11.122Z,10.30
2022-08-11T05:58:45.541Z,8.10
2022-08-11T06:01:23.203Z,9.80
2022-08-11T06:04:16.092Z,7.20
2022-08-11T06:07:03.409Z,11.30
2022-08-11T06:09:38.069Z,9.50
2022-08-11T06:12:17.415Z,5.80
2022-08-11T06:14:51.675Z,8.40
2022-08-11T06:17:38.412Z,7.90
2022-08-11T06:20:13.385Z,6.80
2022-08-11T06:22:52.378Z,11.20
2022-08-11T06:25:31.801Z,7.30
2022-08-11T06:28:04.199Z,8.80
2022-08-11T06:30:42.317Z,8.40
2022-08-11T06:33:16.185Z,6.30
2022-08-11T06:36:00.926Z,11.60
2022-08-11T06:38:55.024Z,12.60
2022-08-11T06:41:32.113Z,8.20
2022-08-11T06:44:24.666Z,9.70
2022-08-11T06:47:01.340Z,7.70
2022-08-11T06:49:56.872Z,10.80
2022-08-11T06:52:36.493Z,7.80
2022-08-11T06:55:57.449Z,6.00
2022-08-11T06:58:23.076Z,9.80
2022-08-11T07:01:00.414Z,6.80
2022-08-11T07:03:39.641Z,11.80
2022-08-11T07:06:41.598Z,9.10
2022-08-11T07:10:05.649Z,7.90
2022-08-11T07:13:02.078Z,6.20
2022-08-11T07:16:12.734Z,7.50
2022-08-11T07:18:56.302Z,4.70
2022-08-11T07:22:02.374Z,4.70
2022-08-11T07:24:59.503Z,3.80
2022-08-11T07:27:56.528Z,4.90
2022-08-11T07:30:28.767Z,4.50
2022-08-11T07:33:04.694Z,6.70
2022-08-11T07:35:38.380Z,4.30
2022-08-11T07:38:15.571Z,5.10
2022-08-11T07:40:50.373Z,4.80
2022-08-11T07:43:22.057Z,7.40
2022-08-11T07:46:11.202Z,7.70
2022-08-11T07:49:02.453Z,4.10
2022-08-11T07:51:51.116Z,3.60
2022-08-11T07:54:22.924Z,4.90
2022-08-11T07:57:08.952Z,7.20
2022-08-11T08:00:10.309Z,3.60
2022-08-11T08:02:59.505Z,5.20
2022-08-11T08:05:48.725Z,3.70
2022-08-11T08:08:41.223Z,3.60
2022-08-11T08:11:30.983Z,3.50
2022-08-11T08:14:20.634Z,3.30
2022-08-11T08:17:10.012Z,3.00
2022-08-11T08:19:44.243Z,2.20
2022-08-11T08:25:11.638Z,2.80
2022-08-11T08:27:43.950Z,3.80
2022-08-11T08:30:34.635Z,4.10
2022-08-11T08:33:07.370Z,3.80
2022-08-11T08:35:54.071Z,2.80
2022-08-11T08:38:27.912Z,4.10
2022-08-11T08:41:00.763Z,3.00
2022-08-11T08:43:48.894Z,2.80
2022-08-11T08:46:27.107Z,2.40
2022-08-11T08:49:01.727Z,2.70
2022-08-11T08:52:01.110Z,4.00
2022-08-11T08:54:35.894Z,4.50
2022-08-11T08:57:09.545Z,3.30
2022-08-11T08:59:48.755Z,4.50
2022-08-11T09:02:34.843Z,5.00
2022-08-11T09:05:10.485Z,2.30
2022-08-11T09:07:43.481Z,4.70
2022-08-11T09:10:20.685Z,3.10
2022-08-11T09:12:53.884Z,3.40
2022-08-11T09:15:27.876Z,2.90
2022-08-11T09:18:06.334Z,2.10
2022-08-11T09:20:40.337Z,2.90
2022-08-11T09:26:41.305Z,2.20
2022-08-11T09:29:15.209Z,2.60
2022-08-11T09:31:47.845Z,3.40
2022-08-11T09:34:19.841Z,4.30
2022-08-11T09:37:09.492Z,2.50
2022-08-11T09:40:00.176Z,2.00
2022-08-11T09:42:45.730Z,2.70
2022-08-11T09:45:18.602Z,4.30
2022-08-11T09:47:50.844Z,1.70
2022-08-11T09:50:22.623Z,5.20
2022-08-11T09:53:35.192Z,2.30
2022-08-11T09:55:47.710Z,2.30
2022-08-11T09:58:42.655Z,3.90
2022-08-11T10:01:27.672Z,2.00
2022-08-11T10:04:05.383Z,3.20
2022-08-11T10:07:00.605Z,4.10
2022-08-11T10:09:42.296Z,7.70
2022-08-11T10:12:19.733Z,4.00
2022-08-11T10:15:13.938Z,2.50
2022-08-11T10:18:02.635Z,3.80
2022-08-11T10:20:37.196Z,1.80
2022-08-11T10:23:27.646Z,2.20
2022-08-11T10:26:20.880Z,2.20
2022-08-11T10:29:12.030Z,2.00
2022-08-11T10:32:04.534Z,1.50
2022-08-11T10:34:36.988Z,2.90
2022-08-11T10:37:15.079Z,3.70
2022-08-11T10:39:50.983Z,2.10
2022-08-11T10:42:57.399Z,2.80
2022-08-11T10:45:48.262Z,2.50
2022-08-11T10:48:21.705Z,1.60
2022-08-11T10:51:12.610Z,3.00
2022-08-11T10:54:04.051Z,3.40
2022-08-11T10:56:56.030Z,2.30
2022-08-11T10:59:30.298Z,2.50
2022-08-11T11:04:45.604Z,2.80
2022-08-11T11:07:25.019Z,2.60
2022-08-11T11:09:59.981Z,2.40
2022-08-11T11:12:53.070Z,2.00
2022-08-11T11:15:58.552Z,2.20
2022-08-11T11:18:36.159Z,1.20
2022-08-11T11:21:11.307Z,1.70
2022-08-11T11:23:47.752Z,3.40
2022-08-11T11:26:51.097Z,2.00
2022-08-11T11:29:41.544Z,3.30
2022-08-11T11:32:31.945Z,2.30
2022-08-11T11:35:20.608Z,2.60
2022-08-11T11:38:03.967Z,1.80
2022-08-11T11:40:39.623Z,1.20
2022-08-11T11:43:11.877Z,2.30
2022-08-11T11:45:44.599Z,1.30
2022-08-11T11:48:16.702Z,3.80
2022-08-11T11:50:48.587Z,2.00
2022-08-11T11:53:20.297Z,1.90
2022-08-11T11:55:53.025Z,1.70
2022-08-11T11:58:42.783Z,3.50
2022-08-11T12:01:17.624Z,2.90
2022-08-11T12:03:51.863Z,2.20
2022-08-11T12:08:57.839Z,2.20
2022-08-11T12:11:48.819Z,4.60
2022-08-11T12:14:24.470Z,3.10
2022-08-11T12:16:56.903Z,2.90
2022-08-11T12:19:35.870Z,2.20
2022-08-11T12:22:25.731Z,2.90
2022-08-11T12:25:15.057Z,3.30
2022-08-11T12:27:48.112Z,2.60
2022-08-11T12:30:21.330Z,2.30
2022-08-11T12:32:53.638Z,1.70
2022-08-11T12:35:25.290Z,2.30
2022-08-11T12:38:05.985Z,1.30
2022-08-11T12:41:16.844Z,1.50
2022-08-11T12:44:07.463Z,2.60
2022-08-11T12:46:44.511Z,3.10
2022-08-11T12:49:37.559Z,3.30
2022-08-11T12:52:19.770Z,2.30
2022-08-11T12:54:59.210Z,2.10
2022-08-11T12:57:52.567Z,1.60
2022-08-11T13:00:43.251Z,2.30
2022-08-11T13:03:33.513Z,2.10
2022-08-11T13:06:06.187Z,2.00
2022-08-11T13:08:41.087Z,1.40
2022-08-11T13:11:55.967Z,4.20
2022-08-11T13:14:22.740Z,3.70
2022-08-11T13:17:12.187Z,3.80
2022-08-11T13:19:49.587Z,2.30
2022-08-11T13:22:23.551Z,4.20
2022-08-11T13:24:56.822Z,5.70
2022-08-11T13:27:28.498Z,4.20
2022-08-11T13:30:14.334Z,4.40
2022-08-11T13:32:47.551Z,2.80
2022-08-11T13:35:20.323Z,2.80
2022-08-11T13:38:17.640Z,4.50
2022-08-11T13:40:55.573Z,3.90
2022-08-11T13:43:29.060Z,2.10
2022-08-11T13:46:15.028Z,5.10
2022-08-11T13:48:49.409Z,1.90
2022-08-11T13:51:35.310Z,1.60
2022-08-11T13:54:10.558Z,2.50
2022-08-11T13:56:44.413Z,3.30
2022-08-11T13:59:17.116Z,1.80
2022-08-11T14:02:20.841Z,2.00
2022-08-11T14:04:55.737Z,4.10
2022-08-11T14:07:34.957Z,2.60
2022-08-11T14:10:09.179Z,3.10
2022-08-11T14:15:33.582Z,5.40
2022-08-11T14:18:11.179Z,4.00
2022-08-11T14:21:01.985Z,7.00
2022-08-11T14:23:37.740Z,4.20
2022-08-11T14:26:27.818Z,2.10
2022-08-11T14:29:04.335Z,1.60
2022-08-11T14:31:38.463Z,3.40
2022-08-11T14:34:13.438Z,5.00
2022-08-11T14:36:52.554Z,2.20
2022-08-11T14:39:27.871Z,3.70
2022-08-11T14:42:20.137Z,3.50
2022-08-11T14:45:18.987Z,3.10
2022-08-11T14:47:56.332Z,1.70
2022-08-11T14:50:30.049Z,1.80
2022-08-11T14:53:03.561Z,2.60
2022-08-11T14:55:55.628Z,2.00
2022-08-11T14:58:31.602Z,1.80
2022-08-11T15:01:25.459Z,2.00
2022-08-11T15:04:27.318Z,1.50
2022-08-11T15:06:50.082Z,3.40
2022-08-11T15:09:22.145Z,3.40
2022-08-11T15:12:32.996Z,2.10
2022-08-11T15:15:24.119Z,2.20
2022-08-11T15:17:59.037Z,5.00
2022-08-11T15:20:48.929Z,2.90
2022-08-11T15:23:42.820Z,1.80
2022-08-11T15:26:18.786Z,2.10
2022-08-11T15:29:09.148Z,2.90
2022-08-11T15:31:58.963Z,2.40
2022-08-11T15:34:49.707Z,2.30
2022-08-11T15:37:31.195Z,1.70
2022-08-11T15:40:32.067Z,4.60
2022-08-11T15:43:30.671Z,3.30
2022-08-11T15:46:11.069Z,2.10
2022-08-11T15:48:49.877Z,1.20
2022-08-11T15:51:29.923Z,2.30
2022-08-11T15:54:09.356Z,3.60
2022-08-11T15:56:43.136Z,3.90
2022-08-11T15:59:42.036Z,1.80
2022-08-11T16:02:35.004Z,1.60
2022-08-11T16:05:45.008Z,1.90
2022-08-11T16:08:08.655Z,3.70
2022-08-11T16:10:44.088Z,2.20
2022-08-11T16:13:34.796Z,2.60
2022-08-11T16:16:19.056Z,2.20
2022-08-11T16:18:57.121Z,2.20
2022-08-11T16:21:36.198Z,2.30
2022-08-11T16:27:04.604Z,2.10
2022-08-11T16:29:48.558Z,3.20
2022-08-11T16:32:23.705Z,2.70
2022-08-11T16:35:15.369Z,3.00
2022-08-11T16:38:05.769Z,2.20
2022-08-11T16:40:38.962Z,3.40
2022-08-11T16:43:32.299Z,3.30
2022-08-11T16:46:23.965Z,4.80
2022-08-11T16:48:57.001Z,4.90
2022-08-11T16:51:28.997Z,5.60
2022-08-11T16:54:04.666Z,6.20
2022-08-11T16:56:45.187Z,7.10
2022-08-11T16:59:28.085Z,8.40
2022-08-11T17:02:04.670Z,8.40
2022-08-11T17:05:06.749Z,7.30
2022-08-11T17:08:01.119Z,8.20
2022-08-11T17:11:00.160Z,10.70
2022-08-11T17:13:42.233Z,9.00
2022-08-11T17:16:17.721Z,7.60
2022-08-11T17:18:58.597Z,6.60
2022-08-11T17:21:34.021Z,6.00
2022-08-11T17:24:09.976Z,6.70
2022-08-11T17:26:57.351Z,8.70
2022-08-11T17:29:32.466Z,5.70
2022-08-11T17:32:25.204Z,5.80
2022-08-11T17:35:18.216Z,6.40
2022-08-11T17:37:51.061Z,5.50
2022-08-11T17:40:26.246Z,4.00
2022-08-11T17:43:17.328Z,4.80
2022-08-11T17:46:08.451Z,4.70
2022-08-11T17:48:48.009Z,7.10
2022-08-11T17:51:36.301Z,4.20
2022-08-11T17:54:37.956Z,6.40
2022-08-11T17:57:32.605Z,7.30
2022-08-11T18:00:07.487Z,5.80
2022-08-11T18:02:58.222Z,5.10
2022-08-11T18:05:32.625Z,6.80
2022-08-11T18:08:25.044Z,4.70
2022-08-11T18:11:59.126Z,6.10
2022-08-11T18:14:29.206Z,4.60
2022-08-11T18:17:20.668Z,6.50
2022-08-11T18:20:09.880Z,4.80
2022-08-11T18:23:01.978Z,5.40
2022-08-11T18:25:53.729Z,4.70
2022-08-11T18:28:46.921Z,5.30
2022-08-11T18:31:38.778Z,7.30
2022-08-11T18:34:29.668Z,7.60
2022-08-11T18:37:27.195Z,6.90
2022-08-11T18:40:22.914Z,5.80
2022-08-11T18:43:16.621Z,6.40
2022-08-11T18:46:10.978Z,7.50
2022-08-11T18:49:11.782Z,6.10
2022-08-11T18:52:05.766Z,9.60
2022-08-11T18:54:56.589Z,8.10
2022-08-11T18:57:50.139Z,7.50
2022-08-11T19:00:47.112Z,8.00
2022-08-11T19:03:43.526Z,10.20
2022-08-11T19:06:41.899Z,7.20
2022-08-11T19:09:35.472Z,8.10
2022-08-11T19:12:26.086Z,13.50
2022-08-11T19:15:17.057Z,6.00
2022-08-11T19:18:07.679Z,6.60
2022-08-11T19:20:57.285Z,9.70
2022-08-11T19:23:53.298Z,7.30
2022-08-11T19:26:43.933Z,7.30
2022-08-11T19:30:07.014Z,6.60
2022-08-11T19:32:44.479Z,6.60
2022-08-11T19:35:34.970Z,6.50
2022-08-11T19:38:24.540Z,7.00
2022-08-11T19:41:16.728Z,7.10
2022-08-11T19:44:10.636Z,6.20
2022-08-11T19:47:07.018Z,9.00
2022-08-11T19:49:59.957Z,7.00
2022-08-11T19:52:50.026Z,6.90
2022-08-11T19:55:40.277Z,7.10
2022-08-11T19:58:29.973Z,5.40
2022-08-11T20:01:18.824Z,6.80
2022-08-11T20:04:07.928Z,7.10
2022-08-11T20:06:58.957Z,5.50
2022-08-11T20:10:06.035Z,6.40
2022-08-11T20:12:58.035Z,5.60
2022-08-11T20:15:48.309Z,5.60
2022-08-11T20:18:38.947Z,5.30
2022-08-11T20:21:31.847Z,4.60
2022-08-11T20:24:26.053Z,5.40
2022-08-11T20:27:18.781Z,6.30
2022-08-11T20:30:15.390Z,6.20
2022-08-11T20:33:05.204Z,4.80
2022-08-11T20:35:56.322Z,5.90
2022-08-11T20:38:48.870Z,6.20
2022-08-11T20:41:58.106Z,4.70
2022-08-11T20:44:51.640Z,4.90
2022-08-11T20:47:59.340Z,6.20
2022-08-11T20:50:52.400Z,7.90
2022-08-11T20:53:44.068Z,7.20
2022-08-11T20:56:35.513Z,6.80
2022-08-11T20:59:25.882Z,4.90
2022-08-11T21:02:16.876Z,7.10
2022-08-11T21:05:19.452Z,6.40
2022-08-11T21:08:27.592Z,5.20
2022-08-11T21:11:27.839Z,6.50
2022-08-11T21:14:18.873Z,5.80
2022-08-11T21:17:27.611Z,8.80
2022-08-11T21:20:24.715Z,5.80
2022-08-11T21:23:19.888Z,6.90
2022-08-11T21:26:17.460Z,7.50
2022-08-11T21:29:07.208Z,6.70
2022-08-11T21:31:57.005Z,5.90
2022-08-11T21:34:49.425Z,5.90
2022-08-11T21:37:39.573Z,5.00
2022-08-11T21:40:33.980Z,5.40
2022-08-11T21:43:23.419Z,8.00
2022-08-11T21:46:14.764Z,6.80
2022-08-11T21:49:04.694Z,6.90
2022-08-11T21:51:53.429Z,7.70
2022-08-11T21:54:44.734Z,5.80
2022-08-11T21:57:35.922Z,7.60
2022-08-11T22:00:38.005Z,4.10
2022-08-11T22:03:27.339Z,6.00
2022-08-11T22:06:17.109Z,4.40
2022-08-11T22:09:05.922Z,7.70
2022-08-11T22:12:33.912Z,5.00
2022-08-11T22:15:04.852Z,8.20
2022-08-11T22:17:57.785Z,6.10
2022-08-11T22:20:47.202Z,5.70
2022-08-11T22:23:37.506Z,5.80
2022-08-11T22:26:28.115Z,3.40
2022-08-11T22:29:16.805Z,6.10
2022-08-11T22:32:05.456Z,6.20
2022-08-11T22:34:55.212Z,7.80
2022-08-11T22:37:48.057Z,6.60
2022-08-11T22:40:37.013Z,5.90
2022-08-11T22:43:26.124Z,5.90
2022-08-11T22:46:15.141Z,5.20
2022-08-11T22:49:07.330Z,6.20
2022-08-11T22:51:56.694Z,5.00
2022-08-11T22:54:45.743Z,6.10
2022-08-11T22:57:35.243Z,5.60
2022-08-11T23:00:25.216Z,7.20
2022-08-11T23:03:36.993Z,6.70
2022-08-11T23:06:27.366Z,6.00
2022-08-11T23:09:17.331Z,7.20
2022-08-11T23:12:10.446Z,6.70
2022-08-11T23:15:01.322Z,5.40
2022-08-11T23:17:51.099Z,5.60
2022-08-11T23:20:48.009Z,5.30
2022-08-11T23:23:39.951Z,5.40
2022-08-11T23:26:29.953Z,6.20
2022-08-11T23:29:20.146Z,4.90
2022-08-11T23:32:12.310Z,6.00
2022-08-11T23:35:37.856Z,5.80
2022-08-11T23:38:15.270Z,4.90
2022-08-11T23:41:04.195Z,5.30
2022-08-11T23:43:53.424Z,6.60
2022-08-11T23:46:44.013Z,4.30
2022-08-11T23:49:33.086Z,5.90
2022-08-11T23:52:23.671Z,5.30
2022-08-11T23:55:12.900Z,4.90
2022-08-11T23:58:02.040Z,4.50
